sensor_id;sensor_type;location;lat;lon;timestamp;pressure;altitude;pressure_sealevel;temperature;humidity
71970;BME280;59838;52.152;5.436;2023-12-07T00:02:21;102068.53;;;-1.67;100.00
71970;BME280;59838;52.152;5.436;2023-12-07T00:04:48;102063.59;;;-1.70;100.00
71970;BME280;59838;52.152;5.436;2023-12-07T00:07:15;102065.34;;;-1.72;100.00
71970;BME280;59838;52.152;5.436;2023-12-07T00:09:41;102073.00;;;-1.72;100.00
71970;BME280;59838;52.152;5.436;2023-12-07T00:12:08;102068.88;;;-1.74;100.00
71970;BME280;59838;52.152;5.436;2023-12-07T00:14:34;102064.69;;;-1.75;100.00
71970;BME280;59838;52.152;5.436;2023-12-07T00:17:01;102069.09;;;-1.79;100.00
71970;BME280;59838;52.152;5.436;2023-12-07T00:19:27;102069.91;;;-1.78;100.00
71970;BME280;59838;52.152;5.436;2023-12-07T00:21:54;102063.94;;;-1.77;100.00
71970;BME280;59838;52.152;5.436;2023-12-07T00:24:20;102065.75;;;-1.79;100.00
71970;BME280;59838;52.152;5.436;2023-12-07T00:26:47;102065.06;;;-1.83;100.00
71970;BME280;59838;52.152;5.436;2023-12-07T00:29:14;102065.19;;;-1.86;100.00
71970;BME280;59838;52.152;5.436;2023-12-07T00:31:41;102055.91;;;-1.87;100.00
71970;BME280;59838;52.152;5.436;2023-12-07T00:34:07;102056.84;;;-1.90;100.00
71970;BME280;59838;52.152;5.436;2023-12-07T00:36:36;102056.09;;;-1.92;100.00
71970;BME280;59838;52.152;5.436;2023-12-07T00:39:02;102055.22;;;-1.91;100.00
71970;BME280;59838;52.152;5.436;2023-12-07T00:41:30;102055.16;;;-1.89;100.00
71970;BME280;59838;52.152;5.436;2023-12-07T00:43:57;102047.59;;;-1.91;100.00
71970;BME280;59838;52.152;5.436;2023-12-07T00:46:23;102048.53;;;-1.93;100.00
71970;BME280;59838;52.152;5.436;2023-12-07T00:48:49;102051.34;;;-1.99;100.00
71970;BME280;59838;52.152;5.436;2023-12-07T00:51:16;102058.31;;;-2.03;100.00
71970;BME280;59838;52.152;5.436;2023-12-07T00:53:43;102068.56;;;-2.05;100.00
71970;BME280;59838;52.152;5.436;2023-12-07T00:56:09;102048.28;;;-2.06;100.00
71970;BME280;59838;52.152;5.436;2023-12-07T00:58:36;102061.00;;;-2.06;100.00
71970;BME280;59838;52.152;5.436;2023-12-07T01:01:05;102054.34;;;-2.09;100.00
71970;BME280;59838;52.152;5.436;2023-12-07T01:03:31;102059.66;;;-2.13;100.00
71970;BME280;59838;52.152;5.436;2023-12-07T01:05:58;102056.34;;;-2.15;100.00
71970;BME280;59838;52.152;5.436;2023-12-07T01:08:24;102057.63;;;-2.26;100.00
71970;BME280;59838;52.152;5.436;2023-12-07T01:10:51;102049.53;;;-2.34;100.00
71970;BME280;59838;52.152;5.436;2023-12-07T01:13:17;102056.88;;;-2.47;100.00
71970;BME280;59838;52.152;5.436;2023-12-07T01:15:44;102063.06;;;-2.52;100.00
71970;BME280;59838;52.152;5.436;2023-12-07T01:18:10;102059.75;;;-2.54;100.00
71970;BME280;59838;52.152;5.436;2023-12-07T01:20:38;102065.63;;;-2.52;100.00
71970;BME280;59838;52.152;5.436;2023-12-07T01:23:04;102062.88;;;-2.48;100.00
71970;BME280;59838;52.152;5.436;2023-12-07T01:25:30;102070.41;;;-2.46;100.00
71970;BME280;59838;52.152;5.436;2023-12-07T01:27:58;102072.22;;;-2.48;100.00
71970;BME280;59838;52.152;5.436;2023-12-07T01:30:24;102074.75;;;-2.48;100.00
71970;BME280;59838;52.152;5.436;2023-12-07T01:32:51;102069.59;;;-2.47;100.00
71970;BME280;59838;52.152;5.436;2023-12-07T01:35:17;102073.75;;;-2.44;100.00
71970;BME280;59838;52.152;5.436;2023-12-07T01:37:44;102078.75;;;-2.43;100.00
71970;BME280;59838;52.152;5.436;2023-12-07T01:40:10;102071.06;;;-2.41;100.00
71970;BME280;59838;52.152;5.436;2023-12-07T01:42:37;102071.88;;;-2.41;100.00
71970;BME280;59838;52.152;5.436;2023-12-07T01:45:06;102075.38;;;-2.43;100.00
71970;BME280;59838;52.152;5.436;2023-12-07T01:47:35;102079.72;;;-2.45;100.00
71970;BME280;59838;52.152;5.436;2023-12-07T01:50:02;102078.16;;;-2.48;100.00
71970;BME280;59838;52.152;5.436;2023-12-07T01:52:31;102080.53;;;-2.45;100.00
71970;BME280;59838;52.152;5.436;2023-12-07T01:54:58;102084.88;;;-2.47;100.00
71970;BME280;59838;52.152;5.436;2023-12-07T01:57:24;102087.47;;;-2.48;100.00
71970;BME280;59838;52.152;5.436;2023-12-07T01:59:51;102080.88;;;-2.52;100.00
71970;BME280;59838;52.152;5.436;2023-12-07T02:02:18;102079.34;;;-2.57;100.00
71970;BME280;59838;52.152;5.436;2023-12-07T02:04:44;102079.34;;;-2.57;100.00
71970;BME280;59838;52.152;5.436;2023-12-07T02:07:11;102079.34;;;-2.57;100.00
71970;BME280;59838;52.152;5.436;2023-12-07T02:09:38;102070.91;;;-2.57;100.00
71970;BME280;59838;52.152;5.436;2023-12-07T02:12:05;102078.53;;;-2.57;100.00
71970;BME280;59838;52.152;5.436;2023-12-07T02:14:31;102071.72;;;-2.57;100.00
71970;BME280;59838;52.152;5.436;2023-12-07T02:17:11;102070.06;;;-2.58;100.00
71970;BME280;59838;52.152;5.436;2023-12-07T02:20:26;102069.25;;;-2.58;100.00
71970;BME280;59838;52.152;5.436;2023-12-07T02:22:56;102073.56;;;-2.60;100.00
71970;BME280;59838;52.152;5.436;2023-12-07T02:25:35;102066.94;;;-2.64;100.00
71970;BME280;59838;52.152;5.436;2023-12-07T02:28:03;102078.84;;;-2.65;100.00
71970;BME280;59838;52.152;5.436;2023-12-07T02:30:30;102080.53;;;-2.64;100.00
71970;BME280;59838;52.152;5.436;2023-12-07T02:32:57;102078.72;;;-2.62;100.00
71970;BME280;59838;52.152;5.436;2023-12-07T02:35:24;102070.06;;;-2.58;100.00
71970;BME280;59838;52.152;5.436;2023-12-07T02:37:51;102076.81;;;-2.57;100.00
71970;BME280;59838;52.152;5.436;2023-12-07T02:40:21;102080.09;;;-2.54;100.00
71970;BME280;59838;52.152;5.436;2023-12-07T02:42:48;102077.50;;;-2.53;100.00
71970;BME280;59838;52.152;5.436;2023-12-07T02:45:15;102077.44;;;-2.51;100.00
71970;BME280;59838;52.152;5.436;2023-12-07T02:47:42;102082.38;;;-2.48;100.00
71970;BME280;59838;52.152;5.436;2023-12-07T02:50:12;102070.34;;;-2.45;100.00
71970;BME280;59838;52.152;5.436;2023-12-07T02:52:39;102064.94;;;-2.37;100.00
71970;BME280;59838;52.152;5.436;2023-12-07T02:55:06;102057.91;;;-2.32;100.00
71970;BME280;59838;52.152;5.436;2023-12-07T02:57:33;102059.38;;;-2.26;100.00
71970;BME280;59838;52.152;5.436;2023-12-07T03:00:00;102055.03;;;-2.24;100.00
71970;BME280;59838;52.152;5.436;2023-12-07T03:02:26;102077.00;;;-2.22;100.00
71970;BME280;59838;52.152;5.436;2023-12-07T03:04:53;102059.97;;;-2.21;100.00
71970;BME280;59838;52.152;5.436;2023-12-07T03:07:19;102060.06;;;-2.23;100.00
71970;BME280;59838;52.152;5.436;2023-12-07T03:09:46;102073.59;;;-2.22;100.00
71970;BME280;59838;52.152;5.436;2023-12-07T03:12:12;102069.28;;;-2.20;100.00
71970;BME280;59838;52.152;5.436;2023-12-07T03:14:39;102074.25;;;-2.17;100.00
71970;BME280;59838;52.152;5.436;2023-12-07T03:17:05;102069.97;;;-2.16;100.00
71970;BME280;59838;52.152;5.436;2023-12-07T03:19:32;102069.91;;;-2.15;100.00
71970;BME280;59838;52.152;5.436;2023-12-07T03:21:58;102078.28;;;-2.13;100.00
71970;BME280;59838;52.152;5.436;2023-12-07T03:24:25;102073.94;;;-2.11;100.00
71970;BME280;59838;52.152;5.436;2023-12-07T03:26:51;102075.59;;;-2.10;100.00
71970;BME280;59838;52.152;5.436;2023-12-07T03:29:18;102084.97;;;-2.10;100.00
71970;BME280;59838;52.152;5.436;2023-12-07T03:31:45;102084.13;;;-2.11;100.00
71970;BME280;59838;52.152;5.436;2023-12-07T03:34:12;102071.41;;;-2.11;100.00
71970;BME280;59838;52.152;5.436;2023-12-07T03:36:46;102082.50;;;-2.12;100.00
71970;BME280;59838;52.152;5.436;2023-12-07T03:39:17;102083.38;;;-2.13;100.00
71970;BME280;59838;52.152;5.436;2023-12-07T03:41:51;102082.63;;;-2.15;100.00
71970;BME280;59838;52.152;5.436;2023-12-07T03:44:18;102074.25;;;-2.17;100.00
71970;BME280;59838;52.152;5.436;2023-12-07T03:46:44;102080.22;;;-2.18;100.00
71970;BME280;59838;52.152;5.436;2023-12-07T03:49:11;102085.50;;;-2.23;100.00
71970;BME280;59838;52.152;5.436;2023-12-07T03:51:38;102084.81;;;-2.26;100.00
71970;BME280;59838;52.152;5.436;2023-12-07T03:54:04;102084.81;;;-2.26;100.00
71970;BME280;59838;52.152;5.436;2023-12-07T03:56:33;102086.47;;;-2.25;100.00
71970;BME280;59838;52.152;5.436;2023-12-07T03:58:59;102087.38;;;-2.26;100.00
71970;BME280;59838;52.152;5.436;2023-12-07T04:01:27;102084.06;;;-2.28;100.00
71970;BME280;59838;52.152;5.436;2023-12-07T04:03:55;102081.59;;;-2.30;100.00
71970;BME280;59838;52.152;5.436;2023-12-07T04:06:23;102086.63;;;-2.28;100.00
71970;BME280;59838;52.152;5.436;2023-12-07T04:08:50;102078.97;;;-2.28;100.00
71970;BME280;59838;52.152;5.436;2023-12-07T04:11:16;102080.69;;;-2.29;100.00
71970;BME280;59838;52.152;5.436;2023-12-07T04:13:44;102088.25;;;-2.27;100.00
71970;BME280;59838;52.152;5.436;2023-12-07T04:16:11;102093.34;;;-2.27;100.00
71970;BME280;59838;52.152;5.436;2023-12-07T04:18:38;102089.09;;;-2.27;100.00
71970;BME280;59838;52.152;5.436;2023-12-07T04:21:05;102086.63;;;-2.28;100.00
71970;BME280;59838;52.152;5.436;2023-12-07T04:23:32;102088.31;;;-2.29;100.00
71970;BME280;59838;52.152;5.436;2023-12-07T04:25:58;102081.53;;;-2.28;100.00
71970;BME280;59838;52.152;5.436;2023-12-07T04:28:25;102081.59;;;-2.30;100.00
71970;BME280;59838;52.152;5.436;2023-12-07T04:30:51;102086.75;;;-2.31;100.00
71970;BME280;59838;52.152;5.436;2023-12-07T04:33:18;102090.06;;;-2.29;100.00
71970;BME280;59838;52.152;5.436;2023-12-07T04:35:45;102084.00;;;-2.27;100.00
71970;BME280;59838;52.152;5.436;2023-12-07T04:38:12;102089.91;;;-2.26;100.00
71970;BME280;59838;52.152;5.436;2023-12-07T04:40:38;102088.13;;;-2.24;100.00
71970;BME280;59838;52.152;5.436;2023-12-07T04:43:05;102089.78;;;-2.23;100.00
71970;BME280;59838;52.152;5.436;2023-12-07T04:45:31;102084.69;;;-2.23;100.00
71970;BME280;59838;52.152;5.436;2023-12-07T04:47:58;102092.31;;;-2.23;100.00
71970;BME280;59838;52.152;5.436;2023-12-07T04:50:26;102080.34;;;-2.21;100.00
71970;BME280;59838;52.152;5.436;2023-12-07T04:52:53;102088.00;;;-2.21;100.00
71970;BME280;59838;52.152;5.436;2023-12-07T04:55:21;102086.19;;;-2.19;100.00
71970;BME280;59838;52.152;5.436;2023-12-07T04:57:47;102088.47;;;-2.13;100.00
71970;BME280;59838;52.152;5.436;2023-12-07T05:00:14;102087.59;;;-2.12;100.00
71970;BME280;59838;52.152;5.436;2023-12-07T05:02:41;102088.41;;;-2.11;100.00
71970;BME280;59838;52.152;5.436;2023-12-07T05:05:07;102081.44;;;-2.08;100.00
71970;BME280;59838;52.152;5.436;2023-12-07T05:07:34;102078.91;;;-2.08;100.00
71970;BME280;59838;52.152;5.436;2023-12-07T05:10:00;102075.31;;;-2.04;100.00
71970;BME280;59838;52.152;5.436;2023-12-07T05:12:27;102074.47;;;-2.04;100.00
71970;BME280;59838;52.152;5.436;2023-12-07T05:14:53;102070.25;;;-2.04;100.00
71970;BME280;59838;52.152;5.436;2023-12-07T05:17:20;102062.59;;;-2.04;100.00
71970;BME280;59838;52.152;5.436;2023-12-07T05:19:46;102065.88;;;-2.02;100.00
71970;BME280;59838;52.152;5.436;2023-12-07T05:22:14;102062.53;;;-2.02;100.00
71970;BME280;59838;52.152;5.436;2023-12-07T05:24:40;102056.59;;;-2.03;100.00
71970;BME280;59838;52.152;5.436;2023-12-07T05:27:07;102068.50;;;-2.03;100.00
71970;BME280;59838;52.152;5.436;2023-12-07T05:29:34;102061.69;;;-2.03;100.00
71970;BME280;59838;52.152;5.436;2023-12-07T05:32:00;102060.06;;;-2.04;100.00
71970;BME280;59838;52.152;5.436;2023-12-07T05:34:26;102066.03;;;-2.05;100.00
71970;BME280;59838;52.152;5.436;2023-12-07T05:36:53;102062.53;;;-2.02;100.00
71970;BME280;59838;52.152;5.436;2023-12-07T05:39:19;102064.16;;;-2.01;100.00
71970;BME280;59838;52.152;5.436;2023-12-07T05:41:47;102056.59;;;-2.03;100.00
71970;BME280;59838;52.152;5.436;2023-12-07T05:44:13;102054.97;;;-2.04;100.00
71970;BME280;59838;52.152;5.436;2023-12-07T05:46:40;102048.06;;;-2.02;100.00
71970;BME280;59838;52.152;5.436;2023-12-07T05:49:10;102056.44;;;-1.99;100.00
71970;BME280;59838;52.152;5.436;2023-12-07T05:51:37;102046.19;;;-1.98;100.00
71970;BME280;59838;52.152;5.436;2023-12-07T05:54:03;102061.41;;;-1.96;100.00
71970;BME280;59838;52.152;5.436;2023-12-07T05:56:30;102058.84;;;-1.96;100.00
71970;BME280;59838;52.152;5.436;2023-12-07T05:58:57;102059.63;;;-1.94;100.00
71970;BME280;59838;52.152;5.436;2023-12-07T06:01:24;102058.50;;;-1.89;100.00
71970;BME280;59838;52.152;5.436;2023-12-07T06:03:51;102059.97;;;-1.83;100.00
71970;BME280;59838;52.152;5.436;2023-12-07T06:06:17;102048.72;;;-1.79;100.00
71970;BME280;59838;52.152;5.436;2023-12-07T06:08:44;102062.97;;;-1.75;100.00
71970;BME280;59838;52.152;5.436;2023-12-07T06:11:11;102066.28;;;-1.73;100.00
71970;BME280;59838;52.152;5.436;2023-12-07T06:13:37;102057.63;;;-1.70;100.00
71970;BME280;59838;52.152;5.436;2023-12-07T06:16:04;102066.06;;;-1.68;100.00
71970;BME280;59838;52.152;5.436;2023-12-07T06:18:31;102069.41;;;-1.68;100.00
71970;BME280;59838;52.152;5.436;2023-12-07T06:20:57;102066.72;;;-1.64;100.00
71970;BME280;59838;52.152;5.436;2023-12-07T06:23:24;102073.50;;;-1.63;100.00
71970;BME280;59838;52.152;5.436;2023-12-07T06:25:50;102069.22;;;-1.63;100.00
71970;BME280;59838;52.152;5.436;2023-12-07T06:28:17;102076.72;;;-1.60;100.00
71970;BME280;59838;52.152;5.436;2023-12-07T06:30:44;102073.25;;;-1.59;100.00
71970;BME280;59838;52.152;5.436;2023-12-07T06:33:11;102090.13;;;-1.56;100.00
71970;BME280;59838;52.152;5.436;2023-12-07T06:35:37;102084.16;;;-1.55;100.00
71970;BME280;59838;52.152;5.436;2023-12-07T06:38:05;102075.50;;;-1.53;100.00
71970;BME280;59838;52.152;5.436;2023-12-07T06:40:31;102078.84;;;-1.51;100.00
71970;BME280;59838;52.152;5.436;2023-12-07T06:42:58;102087.22;;;-1.49;100.00
71970;BME280;59838;52.152;5.436;2023-12-07T06:45:25;102086.31;;;-1.48;100.00
71970;BME280;59838;52.152;5.436;2023-12-07T06:47:52;102081.13;;;-1.46;100.00
71970;BME280;59838;52.152;5.436;2023-12-07T06:50:18;102080.19;;;-1.43;100.00
71970;BME280;59838;52.152;5.436;2023-12-07T06:52:45;102082.59;;;-1.40;100.00
71970;BME280;59838;52.152;5.436;2023-12-07T06:55:11;102082.50;;;-1.39;100.00
71970;BME280;59838;52.152;5.436;2023-12-07T06:57:38;102084.91;;;-1.36;100.00
71970;BME280;59838;52.152;5.436;2023-12-07T07:00:05;102082.28;;;-1.34;100.00
71970;BME280;59838;52.152;5.436;2023-12-07T07:02:39;102082.22;;;-1.33;100.00
71970;BME280;59838;52.152;5.436;2023-12-07T07:05:06;102089.81;;;-1.31;100.00
71970;BME280;59838;52.152;5.436;2023-12-07T07:07:33;102086.34;;;-1.30;100.00
71970;BME280;59838;52.152;5.436;2023-12-07T07:10:00;102082.97;;;-1.31;100.00
71970;BME280;59838;52.152;5.436;2023-12-07T07:12:26;102074.56;;;-1.33;100.00
71970;BME280;59838;52.152;5.436;2023-12-07T07:14:53;102071.03;;;-1.30;100.00
71970;BME280;59838;52.152;5.436;2023-12-07T07:17:20;102076.06;;;-1.29;100.00
71970;BME280;59838;52.152;5.436;2023-12-07T07:19:47;102075.25;;;-1.29;100.00
71970;BME280;59838;52.152;5.436;2023-12-07T07:22:14;102095.56;;;-1.27;100.00
71970;BME280;59838;52.152;5.436;2023-12-07T07:24:40;102087.78;;;-1.24;100.00
71970;BME280;59838;52.152;5.436;2023-12-07T07:27:07;102084.22;;;-1.22;100.00
71970;BME280;59838;52.152;5.436;2023-12-07T07:29:34;102085.00;;;-1.20;100.00
71970;BME280;59838;52.152;5.436;2023-12-07T07:32:00;102090.19;;;-1.21;100.00
71970;BME280;59838;52.152;5.436;2023-12-07T07:34:27;102084.31;;;-1.23;100.00
71970;BME280;59838;52.152;5.436;2023-12-07T07:36:53;102096.16;;;-1.22;100.00
71970;BME280;59838;52.152;5.436;2023-12-07T07:39:20;102100.53;;;-1.24;100.00
71970;BME280;59838;52.152;5.436;2023-12-07T07:41:46;102098.13;;;-1.27;100.00
71970;BME280;59838;52.152;5.436;2023-12-07T07:44:13;102097.19;;;-1.26;100.00
71970;BME280;59838;52.152;5.436;2023-12-07T07:46:42;102091.88;;;-1.22;100.00
71970;BME280;59838;52.152;5.436;2023-12-07T07:49:09;102090.19;;;-1.21;100.00
71970;BME280;59838;52.152;5.436;2023-12-07T07:51:35;102092.81;;;-1.23;100.00
71970;BME280;59838;52.152;5.436;2023-12-07T07:54:02;102095.44;;;-1.24;100.00
71970;BME280;59838;52.152;5.436;2023-12-07T07:56:28;102090.31;;;-1.24;100.00
71970;BME280;59838;52.152;5.436;2023-12-07T07:58:55;102094.50;;;-1.23;100.00
71970;BME280;59838;52.152;5.436;2023-12-07T08:01:21;102099.69;;;-1.25;100.00
71970;BME280;59838;52.152;5.436;2023-12-07T08:03:48;102100.66;;;-1.27;100.00
71970;BME280;59838;52.152;5.436;2023-12-07T08:06:14;102099.75;;;-1.26;100.00
71970;BME280;59838;52.152;5.436;2023-12-07T08:08:41;102091.94;;;-1.23;100.00
71970;BME280;59838;52.152;5.436;2023-12-07T08:11:07;102086.78;;;-1.22;100.00
71970;BME280;59838;52.152;5.436;2023-12-07T08:13:34;102086.78;;;-1.22;100.00
71970;BME280;59838;52.152;5.436;2023-12-07T08:16:01;102085.22;;;-1.24;100.00
71970;BME280;59838;52.152;5.436;2023-12-07T08:18:28;102086.84;;;-1.23;100.00
71970;BME280;59838;52.152;5.436;2023-12-07T08:20:54;102094.44;;;-1.22;100.00
71970;BME280;59838;52.152;5.436;2023-12-07T08:23:21;102103.06;;;-1.24;100.00
71970;BME280;59838;52.152;5.436;2023-12-07T08:25:47;102101.41;;;-1.25;100.00
71970;BME280;59838;52.152;5.436;2023-12-07T08:28:15;102093.09;;;-1.29;100.00
71970;BME280;59838;52.152;5.436;2023-12-07T08:30:41;102091.28;;;-1.27;100.00
71970;BME280;59838;52.152;5.436;2023-12-07T08:33:08;102103.00;;;-1.23;100.00
71970;BME280;59838;52.152;5.436;2023-12-07T08:35:34;102093.47;;;-1.19;100.00
71970;BME280;59838;52.152;5.436;2023-12-07T08:38:01;102088.38;;;-1.19;100.00
71970;BME280;59838;52.152;5.436;2023-12-07T08:40:27;102090.84;;;-1.18;100.00
71970;BME280;59838;52.152;5.436;2023-12-07T08:42:54;102093.41;;;-1.18;100.00
71970;BME280;59838;52.152;5.436;2023-12-07T08:45:21;102090.63;;;-1.13;100.00
71970;BME280;59838;52.152;5.436;2023-12-07T08:47:47;102091.38;;;-1.11;100.00
71970;BME280;59838;52.152;5.436;2023-12-07T08:50:14;102086.94;;;-1.07;100.00
71970;BME280;59838;52.152;5.436;2023-12-07T08:52:40;102097.94;;;-1.07;100.00
71970;BME280;59838;52.152;5.436;2023-12-07T08:55:15;102084.97;;;-1.02;100.00
71970;BME280;59838;52.152;5.436;2023-12-07T08:57:43;102077.41;;;-1.04;100.00
71970;BME280;59838;52.152;5.436;2023-12-07T09:00:10;102085.81;;;-1.02;100.00
71970;BME280;59838;52.152;5.436;2023-12-07T09:02:39;102079.88;;;-1.02;100.00
71970;BME280;59838;52.152;5.436;2023-12-07T09:05:13;102079.81;;;-1.01;100.00
71970;BME280;59838;52.152;5.436;2023-12-07T09:07:40;102083.06;;;-0.97;100.00
71970;BME280;59838;52.152;5.436;2023-12-07T09:10:07;102087.81;;;-0.91;100.00
71970;BME280;59838;52.152;5.436;2023-12-07T09:12:35;102091.22;;;-0.90;100.00
71970;BME280;59838;52.152;5.436;2023-12-07T09:15:06;102080.25;;;-0.93;100.00
71970;BME280;59838;52.152;5.436;2023-12-07T09:17:34;102069.00;;;-0.88;100.00
71970;BME280;59838;52.152;5.436;2023-12-07T09:20:01;102071.53;;;-0.88;100.00
71970;BME280;59838;52.152;5.436;2023-12-07T09:22:28;102063.16;;;-0.90;100.00
71970;BME280;59838;52.152;5.436;2023-12-07T09:25:04;102066.44;;;-0.88;100.00
71970;BME280;59838;52.152;5.436;2023-12-07T09:27:31;102051.94;;;-0.88;100.00
71970;BME280;59838;52.152;5.436;2023-12-07T09:30:01;102061.19;;;-0.85;100.00
71970;BME280;59838;52.152;5.436;2023-12-07T09:32:27;102065.06;;;-0.78;100.00
71970;BME280;59838;52.152;5.436;2023-12-07T09:35:03;102069.94;;;-0.74;100.00
71970;BME280;59838;52.152;5.436;2023-12-07T09:37:30;102068.38;;;-0.76;100.00
71970;BME280;59838;52.152;5.436;2023-12-07T09:39:56;102070.75;;;-0.73;100.00
71970;BME280;59838;52.152;5.436;2023-12-07T09:42:23;102078.34;;;-0.71;100.00
71970;BME280;59838;52.152;5.436;2023-12-07T09:44:57;102074.88;;;-0.70;100.00
71970;BME280;59838;52.152;5.436;2023-12-07T09:47:26;102075.56;;;-0.67;100.00
71970;BME280;59838;52.152;5.436;2023-12-07T09:50:03;102076.41;;;-0.66;100.00
71970;BME280;59838;52.152;5.436;2023-12-07T09:52:30;102074.75;;;-0.67;100.00
71970;BME280;59838;52.152;5.436;2023-12-07T09:54:57;102074.59;;;-0.64;100.00
71970;BME280;59838;52.152;5.436;2023-12-07T09:57:24;102071.94;;;-0.63;100.00
71970;BME280;59838;52.152;5.436;2023-12-07T09:59:56;102073.66;;;-0.63;100.00
71970;BME280;59838;52.152;5.436;2023-12-07T10:02:22;102067.75;;;-0.64;100.00
71970;BME280;59838;52.152;5.436;2023-12-07T10:05:03;102063.38;;;-0.62;100.00
71970;BME280;59838;52.152;5.436;2023-12-07T10:07:35;102058.13;;;-0.59;100.00
71970;BME280;59838;52.152;5.436;2023-12-07T10:10:05;102054.50;;;-0.54;100.00
71970;BME280;59838;52.152;5.436;2023-12-07T10:12:32;102051.81;;;-0.51;100.00
71970;BME280;59838;52.152;5.436;2023-12-07T10:15:12;102040.75;;;-0.52;100.00
71970;BME280;59838;52.152;5.436;2023-12-07T10:17:53;102044.16;;;-0.51;100.00
71970;BME280;59838;52.152;5.436;2023-12-07T10:20:21;102033.28;;;-0.55;100.00
71970;BME280;59838;52.152;5.436;2023-12-07T10:23:04;102025.44;;;-0.52;100.00
71970;BME280;59838;52.152;5.436;2023-12-07T10:25:35;102016.88;;;-0.51;100.00
71970;BME280;59838;52.152;5.436;2023-12-07T10:28:02;102011.69;;;-0.49;100.00
71970;BME280;59838;52.152;5.436;2023-12-07T10:30:34;102006.75;;;-0.52;100.00
71970;BME280;59838;52.152;5.436;2023-12-07T10:33:03;102005.69;;;-0.48;100.00
71970;BME280;59838;52.152;5.436;2023-12-07T10:35:30;102003.97;;;-0.48;100.00
71970;BME280;59838;52.152;5.436;2023-12-07T10:37:58;101998.94;;;-0.49;100.00
71970;BME280;59838;52.152;5.436;2023-12-07T10:40:24;102002.28;;;-0.49;100.00
71970;BME280;59838;52.152;5.436;2023-12-07T10:42:56;102008.16;;;-0.47;100.00
71970;BME280;59838;52.152;5.436;2023-12-07T10:45:29;101999.50;;;-0.44;100.00
71970;BME280;59838;52.152;5.436;2023-12-07T10:48:02;101997.69;;;-0.42;100.00
71970;BME280;59838;52.152;5.436;2023-12-07T10:50:34;102001.00;;;-0.40;100.00
71970;BME280;59838;52.152;5.436;2023-12-07T10:53:15;101991.53;;;-0.38;100.00
71970;BME280;59838;52.152;5.436;2023-12-07T10:55:47;101984.50;;;-0.34;100.00
71970;BME280;59838;52.152;5.436;2023-12-07T10:58:19;101980.97;;;-0.32;100.00
71970;BME280;59838;52.152;5.436;2023-12-07T11:00:46;101979.88;;;-0.28;100.00
71970;BME280;59838;52.152;5.436;2023-12-07T11:03:16;101984.84;;;-0.25;100.00
71970;BME280;59838;52.152;5.436;2023-12-07T11:05:45;101975.63;;;-0.27;100.00
71970;BME280;59838;52.152;5.436;2023-12-07T11:08:21;101983.47;;;-0.30;100.00
71970;BME280;59838;52.152;5.436;2023-12-07T11:13:36;101975.22;;;-0.35;100.00
71970;BME280;59838;52.152;5.436;2023-12-07T11:16:04;101970.03;;;-0.34;100.00
71970;BME280;59838;52.152;5.436;2023-12-07T11:18:31;101968.38;;;-0.35;100.00
71970;BME280;59838;52.152;5.436;2023-12-07T11:20:58;101959.63;;;-0.31;100.00
71970;BME280;59838;52.152;5.436;2023-12-07T11:23:27;101959.47;;;-0.28;100.00
71970;BME280;59838;52.152;5.436;2023-12-07T11:25:54;101948.28;;;-0.25;100.00
71970;BME280;59838;52.152;5.436;2023-12-07T11:28:38;101947.19;;;-0.21;100.00
71970;BME280;59838;52.152;5.436;2023-12-07T11:31:06;101951.56;;;-0.23;100.00
71970;BME280;59838;52.152;5.436;2023-12-07T11:33:37;101941.25;;;-0.22;100.00
71970;BME280;59838;52.152;5.436;2023-12-07T11:36:08;101931.84;;;-0.21;100.00
71970;BME280;59838;52.152;5.436;2023-12-07T11:38:37;101923.22;;;-0.19;100.00
71970;BME280;59838;52.152;5.436;2023-12-07T11:41:03;101922.16;;;-0.14;100.00
71970;BME280;59838;52.152;5.436;2023-12-07T11:46:01;101920.53;;;-0.01;100.00
71970;BME280;59838;52.152;5.436;2023-12-07T11:48:28;101912.63;;;0.04;100.00
71970;BME280;59838;52.152;5.436;2023-12-07T11:51:08;101913.44;;;0.04;100.00
71970;BME280;59838;52.152;5.436;2023-12-07T11:53:36;101920.13;;;0.07;100.00
71970;BME280;59838;52.152;5.436;2023-12-07T11:56:05;101914.91;;;0.08;100.00
71970;BME280;59838;52.152;5.436;2023-12-07T11:58:33;101920.03;;;0.08;100.00
71970;BME280;59838;52.152;5.436;2023-12-07T12:01:05;101912.28;;;0.10;100.00
71970;BME280;59838;52.152;5.436;2023-12-07T12:03:33;101904.16;;;0.17;100.00
71970;BME280;59838;52.152;5.436;2023-12-07T12:06:02;101896.31;;;0.21;100.00
71970;BME280;59838;52.152;5.436;2023-12-07T12:08:29;101895.50;;;0.20;100.00
71970;BME280;59838;52.152;5.436;2023-12-07T12:10:57;101891.09;;;0.22;100.00
71970;BME280;59838;52.152;5.436;2023-12-07T12:13:28;101889.19;;;0.26;100.00
71970;BME280;59838;52.152;5.436;2023-12-07T12:15:57;101883.63;;;0.33;100.00
71970;BME280;59838;52.152;5.436;2023-12-07T12:18:29;101867.31;;;0.36;100.00
71970;BME280;59838;52.152;5.436;2023-12-07T12:20:55;101867.22;;;0.38;100.00
71970;BME280;59838;52.152;5.436;2023-12-07T12:23:24;101868.84;;;0.39;100.00
71970;BME280;59838;52.152;5.436;2023-12-07T12:25:50;101869.50;;;0.42;100.00
71970;BME280;59838;52.152;5.436;2023-12-07T12:28:18;101864.09;;;0.47;100.00
71970;BME280;59838;52.152;5.436;2023-12-07T12:30:48;101850.41;;;0.48;100.00
71970;BME280;59838;52.152;5.436;2023-12-07T12:33:15;101851.22;;;0.48;100.00
71970;BME280;59838;52.152;5.436;2023-12-07T12:35:42;101858.09;;;0.48;100.00
71970;BME280;59838;52.152;5.436;2023-12-07T12:38:09;101850.41;;;0.48;100.00
71970;BME280;59838;52.152;5.436;2023-12-07T12:40:41;101842.66;;;0.49;100.00
71970;BME280;59838;52.152;5.436;2023-12-07T12:43:07;101835.72;;;0.51;100.00
71970;BME280;59838;52.152;5.436;2023-12-07T12:45:35;101837.19;;;0.56;100.00
71970;BME280;59838;52.152;5.436;2023-12-07T12:48:01;101835.25;;;0.59;100.00
71970;BME280;59838;52.152;5.436;2023-12-07T12:50:37;101813.72;;;0.63;100.00